Portada
METAR-TAF:

METAR-TAF

Aeropuertos :

Aeropuerto de Adana Şakirpaşa

Adana, Turquía

latitud: 36-59N, longitud: 035-18E, altitud: 20 m

Observación

El informe se hizo hace 44 minutos, a las 11:20 UTC
Viento 12 kt del norte-noreste
Temperatura 8°C
Humedad 71%
Presión 1018 hPa
Visibilidad 10 km o más
Nubes dispersas a una altura de 3500 ft
Cielo nuboso a una altura de 10000 ft

METAR: LTAF 221120Z 03012KT 9999 SCT035 BKN100 08/03 Q1018 NOSIG RMK RWY23 05012KT 020V080

Hora: 15:04 (12:04 UTC)


TAF: falta

Observaciones y pronósticos meteorológicos de más de 4000 aeropuertos (mensajes METAR y TAF).

Los puntos amarillos y rojos representan las estaciones disponibles.

Ponga el ratón en el punto deseado para ver el nombre de la estación.

Haga clic para ver las observaciones y los pronósticos meteorológicos.

Para cambiar el mapa : haga clic en los botones verdes con una cruz de color negro para hacer un zoom, en el botón verde con un guión para alejar o en las flechas verdes para mapas adyacentes.


METAR-TAF: